Time;durP1;ratioP1;P1;durP2;ratioP2;P2;SDS_P1;SDS_P2;PMS_P1;PMS_P2;Temp;Humidity;BMP_temperature;BMP_pressure;BME280_temperature;BME280_humidity;BME280_pressure;Samples;Min_cycle;Max_cycle;Signal;HPM_P1;HPM_P2
2022/08/14 00:00:43;;;;;;;5.55;2.25;;;;;;;;;;5068642;28;20436;-45
2022/08/14 00:03:21;;;;;;;4.97;2.70;;;;;;;;;;5065641;28;20115;-47
2022/08/14 00:05:47;;;;;;;8.35;2.72;;;;;;;;;;5073832;28;20028;-48
2022/08/14 00:08:13;;;;;;;3.72;2.50;;;;;;;;;;5069666;28;20035;-43
2022/08/14 00:10:38;;;;;;;3.80;2.35;;;;;;;;;;5073043;28;20024;-50
2022/08/14 00:13:05;;;;;;;7.22;3.05;;;;;;;;;;5068644;28;20082;-45
2022/08/14 00:15:35;;;;;;;4.50;2.40;;;;;;;;;;5070138;28;20056;-47
2022/08/14 00:18:01;;;;;;;4.75;2.55;;;;;;;;;;5069403;28;20496;-45
2022/08/14 00:20:35;;;;;;;7.72;2.67;;;;;;;;;;5066149;28;20055;-49
2022/08/14 00:23:00;;;;;;;7.03;2.90;;;;;;;;;;5069723;28;20029;-45
2022/08/14 00:25:27;;;;;;;5.97;2.63;;;;;;;;;;5070684;28;20592;-46
2022/08/14 00:27:53;;;;;;;6.45;2.63;;;;;;;;;;5066701;28;20119;-47
2022/08/14 00:30:20;;;;;;;7.38;2.95;;;;;;;;;;5064991;28;20378;-46
2022/08/14 00:32:45;;;;;;;3.75;2.67;;;;;;;;;;5069941;28;20075;-45
2022/08/14 00:35:11;;;;;;;4.13;2.42;;;;;;;;;;5067042;28;20048;-48
2022/08/14 00:37:39;;;;;;;8.07;2.63;;;;;;;;;;5069870;28;20381;-45
2022/08/14 00:40:07;;;;;;;5.43;2.60;;;;;;;;;;5071311;28;20027;-46
2022/08/14 00:42:33;;;;;;;5.15;3.17;;;;;;;;;;5066897;28;20107;-46
2022/08/14 00:44:58;;;;;;;8.43;2.85;;;;;;;;;;5068896;28;20037;-45
2022/08/14 00:47:24;;;;;;;2.90;2.38;;;;;;;;;;5068558;28;20029;-45
2022/08/14 00:49:52;;;;;;;9.77;2.78;;;;;;;;;;5068046;28;20036;-48
2022/08/14 00:52:19;;;;;;;4.43;2.30;;;;;;;;;;5064854;28;20048;-47
2022/08/14 00:54:51;;;;;;;3.42;2.63;;;;;;;;;;5068709;28;20035;-45
2022/08/14 00:57:18;;;;;;;5.13;2.75;;;;;;;;;;5067489;28;20040;-45
2022/08/14 00:59:44;;;;;;;2.60;2.40;;;;;;;;;;5065737;28;20095;-45
2022/08/14 01:02:12;;;;;;;4.45;2.80;;;;;;;;;;5070730;28;20029;-45
2022/08/14 01:04:38;;;;;;;5.25;2.65;;;;;;;;;;5069659;28;20024;-46
2022/08/14 01:07:06;;;;;;;5.20;2.70;;;;;;;;;;5068931;28;20029;-46
2022/08/14 01:09:34;;;;;;;3.40;2.55;;;;;;;;;;5067063;28;20020;-46
2022/08/14 01:12:01;;;;;;;3.65;2.25;;;;;;;;;;5066280;28;20063;-45
2022/08/14 01:14:27;;;;;;;5.35;3.03;;;;;;;;;;5065980;28;20032;-46
2022/08/14 01:16:53;;;;;;;7.85;2.75;;;;;;;;;;5068441;28;20081;-43
2022/08/14 01:22:06;;;;;;;3.45;2.65;;;;;;;;;;5066603;28;20083;-50
2022/08/14 01:24:32;;;;;;;8.20;3.47;;;;;;;;;;5065400;28;20120;-46
2022/08/14 01:26:59;;;;;;;2.28;2.08;;;;;;;;;;5067807;28;20515;-45
2022/08/14 01:29:26;;;;;;;9.35;2.40;;;;;;;;;;5068012;28;20036;-45
2022/08/14 01:31:51;;;;;;;3.03;2.33;;;;;;;;;;5067799;28;20055;-45
2022/08/14 01:34:24;;;;;;;7.80;2.42;;;;;;;;;;5066000;28;20024;-46
2022/08/14 01:36:52;;;;;;;7.28;2.78;;;;;;;;;;5067231;28;20032;-45
2022/08/14 01:39:19;;;;;;;2.47;2.28;;;;;;;;;;5067317;28;20025;-50
2022/08/14 01:41:55;;;;;;;5.70;2.65;;;;;;;;;;5065460;28;20038;-45
2022/08/14 01:44:25;;;;;;;5.80;2.45;;;;;;;;;;5068796;28;20081;-45
2022/08/14 01:46:53;;;;;;;2.97;2.40;;;;;;;;;;5071429;28;20026;-50
2022/08/14 01:49:20;;;;;;;5.97;2.60;;;;;;;;;;5066018;28;20370;-45
2022/08/14 01:51:47;;;;;;;5.43;2.42;;;;;;;;;;5065820;28;20058;-46
2022/08/14 01:54:20;;;;;;;7.75;2.50;;;;;;;;;;5071138;28;20033;-45
2022/08/14 01:56:49;;;;;;;3.47;2.45;;;;;;;;;;5068668;28;20020;-45
2022/08/14 01:59:23;;;;;;;6.25;2.70;;;;;;;;;;5067300;28;20123;-45
2022/08/14 02:01:51;;;;;;;4.55;2.28;;;;;;;;;;5066435;28;20094;-49
2022/08/14 02:04:19;;;;;;;4.70;2.50;;;;;;;;;;5068185;28;20078;-46
2022/08/14 02:06:46;;;;;;;4.65;2.60;;;;;;;;;;5065992;28;20071;-49
2022/08/14 02:09:11;;;;;;;5.15;2.40;;;;;;;;;;5066987;28;20442;-45
2022/08/14 02:11:38;;;;;;;10.50;2.88;;;;;;;;;;5065648;28;20104;-45
2022/08/14 02:14:07;;;;;;;6.47;2.47;;;;;;;;;;5068221;28;20024;-47
2022/08/14 02:16:44;;;;;;;2.20;2.00;;;;;;;;;;5066248;28;20116;-45
2022/08/14 02:19:13;;;;;;;5.65;2.55;;;;;;;;;;5063556;28;20082;-47
2022/08/14 02:21:41;;;;;;;6.00;2.33;;;;;;;;;;5067728;28;20043;-46
2022/08/14 02:24:07;;;;;;;6.15;2.30;;;;;;;;;;5065686;28;20119;-45
2022/08/14 02:26:38;;;;;;;4.35;2.60;;;;;;;;;;5066747;28;20064;-46
2022/08/14 02:29:12;;;;;;;4.50;2.33;;;;;;;;;;5065673;28;20021;-46
2022/08/14 02:31:40;;;;;;;7.25;2.63;;;;;;;;;;5067269;28;20595;-47
2022/08/14 02:34:17;;;;;;;4.43;2.15;;;;;;;;;;5064934;28;20029;-47
2022/08/14 02:36:44;;;;;;;4.93;2.58;;;;;;;;;;5064881;28;20028;-45
2022/08/14 02:39:11;;;;;;;3.50;2.35;;;;;;;;;;5063509;28;20035;-46
2022/08/14 02:41:38;;;;;;;4.25;2.20;;;;;;;;;;5067829;28;20036;-47
2022/08/14 02:44:06;;;;;;;4.10;2.20;;;;;;;;;;5066943;28;20051;-45
2022/08/14 02:46:32;;;;;;;6.25;2.95;;;;;;;;;;5063904;28;20397;-45
2022/08/14 02:48:59;;;;;;;2.63;2.30;;;;;;;;;;5065443;28;20028;-45
2022/08/14 02:51:25;;;;;;;2.40;2.20;;;;;;;;;;5066961;28;20041;-47
2022/08/14 02:53:53;;;;;;;4.25;2.33;;;;;;;;;;5067312;28;20028;-49
2022/08/14 02:56:19;;;;;;;6.63;2.20;;;;;;;;;;5066032;28;20063;-48
2022/08/14 02:58:46;;;;;;;2.50;2.20;;;;;;;;;;5068366;28;20143;-49
2022/08/14 03:01:15;;;;;;;2.60;2.40;;;;;;;;;;5062361;28;20044;-49
2022/08/14 03:03:42;;;;;;;3.17;2.08;;;;;;;;;;5063685;28;20020;-50
2022/08/14 03:06:08;;;;;;;3.83;2.13;;;;;;;;;;5065935;28;20025;-47
2022/08/14 03:08:36;;;;;;;2.78;2.08;;;;;;;;;;5068368;28;20420;-45
2022/08/14 03:11:09;;;;;;;5.20;2.20;;;;;;;;;;5066542;28;20021;-47
2022/08/14 03:13:38;;;;;;;9.00;2.70;;;;;;;;;;5066975;28;20032;-49
2022/08/14 03:16:06;;;;;;;3.30;2.13;;;;;;;;;;5066335;28;20530;-47
2022/08/14 03:18:31;;;;;;;10.63;2.55;;;;;;;;;;5066535;28;20058;-47
2022/08/14 03:21:00;;;;;;;2.88;2.22;;;;;;;;;;5068426;28;20625;-47
2022/08/14 03:23:26;;;;;;;3.88;2.50;;;;;;;;;;5063090;28;20043;-46
2022/08/14 03:25:52;;;;;;;3.13;2.30;;;;;;;;;;5065754;28;20088;-46
2022/08/14 03:28:18;;;;;;;4.55;2.50;;;;;;;;;;5065522;28;20108;-50
2022/08/14 03:30:44;;;;;;;5.35;2.70;;;;;;;;;;5066390;28;20492;-48
2022/08/14 03:33:11;;;;;;;6.82;2.45;;;;;;;;;;5066952;28;20124;-48
2022/08/14 03:35:40;;;;;;;7.97;2.40;;;;;;;;;;5063948;28;20187;-46
2022/08/14 03:38:11;;;;;;;5.72;2.17;;;;;;;;;;5061059;28;20032;-47
2022/08/14 03:40:39;;;;;;;6.45;2.50;;;;;;;;;;5062472;28;20040;-51
2022/08/14 03:43:07;;;;;;;2.55;2.20;;;;;;;;;;5063814;28;20052;-49
2022/08/14 03:45:34;;;;;;;7.65;2.30;;;;;;;;;;5065703;28;20453;-49
2022/08/14 03:48:19;;;;;;;5.80;2.10;;;;;;;;;;5064089;28;20029;-48
2022/08/14 03:50:52;;;;;;;4.07;2.83;;;;;;;;;;5062650;28;20580;-49
2022/08/14 03:53:19;;;;;;;4.45;2.63;;;;;;;;;;5063255;28;20899;-46
2022/08/14 03:55:46;;;;;;;7.70;2.40;;;;;;;;;;5066056;28;20518;-48
2022/08/14 03:58:12;;;;;;;6.28;2.63;;;;;;;;;;5064594;28;20060;-47
2022/08/14 04:00:40;;;;;;;9.32;2.67;;;;;;;;;;5062955;28;20036;-46
2022/08/14 04:03:08;;;;;;;6.28;2.70;;;;;;;;;;5067247;28;20407;-47
2022/08/14 04:05:37;;;;;;;4.00;2.50;;;;;;;;;;5063328;28;20043;-46
2022/08/14 04:08:04;;;;;;;5.18;2.70;;;;;;;;;;5065854;28;20116;-47
2022/08/14 04:10:30;;;;;;;6.07;2.00;;;;;;;;;;5067165;28;20029;-50
2022/08/14 04:12:58;;;;;;;4.70;2.67;;;;;;;;;;5065587;28;20028;-48
2022/08/14 04:15:45;;;;;;;8.88;2.85;;;;;;;;;;5066414;28;20082;-46
2022/08/14 04:18:31;;;;;;;3.22;2.83;;;;;;;;;;5067874;28;20127;-47
2022/08/14 04:21:17;;;;;;;3.85;2.30;;;;;;;;;;5064790;28;20041;-46
2022/08/14 04:24:04;;;;;;;5.85;2.63;;;;;;;;;;5063653;28;20036;-46
2022/08/14 04:26:50;;;;;;;2.45;2.25;;;;;;;;;;5060774;28;20493;-49
2022/08/14 04:29:41;;;;;;;3.58;2.58;;;;;;;;;;5063803;28;20063;-48
2022/08/14 04:32:14;;;;;;;2.75;2.42;;;;;;;;;;5061530;28;20373;-48
2022/08/14 04:34:40;;;;;;;6.78;2.70;;;;;;;;;;5067823;28;20028;-46
2022/08/14 04:45:25;;;;;;;3.92;2.72;;;;;;;;;;5073329;28;20047;-49
2022/08/14 04:50:42;;;;;;;3.53;2.22;;;;;;;;;;5064210;28;20484;-47
2022/08/14 04:53:12;;;;;;;3.38;2.45;;;;;;;;;;5070854;28;20058;-48
2022/08/14 04:55:39;;;;;;;7.15;2.58;;;;;;;;;;5072015;28;20025;-49
2022/08/14 04:58:05;;;;;;;5.88;2.50;;;;;;;;;;5068705;28;20079;-47
2022/08/14 05:00:31;;;;;;;4.22;2.60;;;;;;;;;;5070761;28;20032;-47
2022/08/14 05:02:57;;;;;;;2.47;2.10;;;;;;;;;;5067532;28;20043;-49
2022/08/14 05:05:23;;;;;;;6.45;2.50;;;;;;;;;;5071916;28;20470;-46
2022/08/14 05:07:50;;;;;;;4.25;2.40;;;;;;;;;;5068133;28;20033;-47
2022/08/14 05:10:22;;;;;;;4.20;2.55;;;;;;;;;;5070295;28;20031;-49
2022/08/14 05:12:48;;;;;;;;;;;;;;;;;;5071245;28;20027;-46
2022/08/14 05:15:14;;;;;;;2.70;2.30;;;;;;;;;;5065360;28;19920;-45
2022/08/14 05:17:43;;;;;;;4.07;1.95;;;;;;;;;;5070660;28;20469;-45
2022/08/14 05:20:09;;;;;;;2.40;2.20;;;;;;;;;;5069570;28;20028;-47
2022/08/14 05:22:36;;;;;;;2.30;2.10;;;;;;;;;;5068348;28;20040;-45
2022/08/14 05:25:03;;;;;;;2.97;1.88;;;;;;;;;;5065818;28;20024;-48
2022/08/14 05:27:29;;;;;;;5.43;2.15;;;;;;;;;;5068817;28;20032;-45
2022/08/14 05:29:55;;;;;;;3.83;2.22;;;;;;;;;;5071525;28;20242;-47
2022/08/14 05:32:21;;;;;;;8.48;2.35;;;;;;;;;;5070161;28;20021;-45
2022/08/14 05:34:47;;;;;;;7.03;2.00;;;;;;;;;;5067829;28;20135;-46
2022/08/14 05:37:13;;;;;;;4.15;1.95;;;;;;;;;;5068554;28;20103;-49
2022/08/14 05:39:40;;;;;;;3.40;2.17;;;;;;;;;;5069072;28;20120;-46
2022/08/14 05:42:06;;;;;;;2.28;2.08;;;;;;;;;;5068995;28;20162;-45
2022/08/14 05:44:32;;;;;;;2.00;1.90;;;;;;;;;;5069073;28;20037;-46
2022/08/14 05:46:58;;;;;;;5.15;2.00;;;;;;;;;;5067286;28;20499;-46
2022/08/14 05:49:24;;;;;;;2.20;2.00;;;;;;;;;;5065322;28;20025;-49
2022/08/14 05:51:50;;;;;;;2.20;1.92;;;;;;;;;;5067978;28;20036;-46
2022/08/14 05:54:16;;;;;;;4.22;1.90;;;;;;;;;;5067823;28;20035;-46
2022/08/14 05:56:43;;;;;;;2.30;2.00;;;;;;;;;;5068553;28;20182;-47
2022/08/14 05:59:09;;;;;;;5.78;2.50;;;;;;;;;;5068850;28;20052;-46
2022/08/14 06:01:35;;;;;;;2.58;2.20;;;;;;;;;;5066756;28;20032;-46
2022/08/14 06:04:01;;;;;;;2.08;1.98;;;;;;;;;;5067145;28;20628;-45
2022/08/14 06:06:27;;;;;;;4.15;2.10;;;;;;;;;;5060745;28;20090;-45
2022/08/14 06:08:52;;;;;;;3.35;2.03;;;;;;;;;;5064493;28;20501;-48
2022/08/14 06:11:18;;;;;;;3.97;1.75;;;;;;;;;;5065604;28;20104;-50
2022/08/14 06:13:44;;;;;;;5.22;2.10;;;;;;;;;;5066267;28;20111;-45
2022/08/14 06:16:09;;;;;;;2.00;1.80;;;;;;;;;;5069318;28;20039;-46
2022/08/14 06:18:35;;;;;;;3.28;2.28;;;;;;;;;;5069783;28;20033;-45
2022/08/14 06:21:04;;;;;;;4.85;1.85;;;;;;;;;;5066689;28;20381;-47
2022/08/14 06:23:30;;;;;;;2.30;2.10;;;;;;;;;;5067478;28;20036;-46
2022/08/14 06:25:56;;;;;;;2.20;1.80;;;;;;;;;;5065541;28;20177;-46
2022/08/14 06:28:25;;;;;;;7.00;1.90;;;;;;;;;;5066594;28;20031;-46
2022/08/14 06:30:52;;;;;;;4.18;2.08;;;;;;;;;;5063344;28;20036;-46
2022/08/14 06:33:19;;;;;;;3.80;2.25;;;;;;;;;;5066607;28;20033;-46
2022/08/14 06:35:46;;;;;;;2.95;1.90;;;;;;;;;;5064143;28;20057;-45
2022/08/14 06:38:17;;;;;;;5.38;1.90;;;;;;;;;;5065678;28;20078;-47
2022/08/14 06:40:43;;;;;;;4.80;1.87;;;;;;;;;;5068138;28;20021;-48
2022/08/14 06:43:10;;;;;;;3.47;1.85;;;;;;;;;;5065913;28;20356;-45
2022/08/14 06:45:39;;;;;;;8.38;2.00;;;;;;;;;;5065804;28;20033;-47
2022/08/14 06:48:18;;;;;;;2.47;1.98;;;;;;;;;;5064568;28;20035;-46
2022/08/14 06:50:45;;;;;;;12.10;2.10;;;;;;;;;;5067216;28;20031;-45
2022/08/14 06:53:13;;;;;;;5.35;2.00;;;;;;;;;;5065801;28;20040;-46
2022/08/14 06:55:41;;;;;;;2.55;1.73;;;;;;;;;;5065907;28;20473;-48
2022/08/14 06:58:11;;;;;;;3.50;1.45;;;;;;;;;;5065655;28;20060;-46
2022/08/14 07:00:37;;;;;;;3.25;1.67;;;;;;;;;;5063600;28;20437;-46
2022/08/14 07:05:48;;;;;;;2.30;1.50;;;;;;;;;;5068095;28;20028;-47
2022/08/14 07:08:27;;;;;;;3.47;1.80;;;;;;;;;;5063471;28;20128;-47
2022/08/14 07:10:58;;;;;;;2.17;1.63;;;;;;;;;;5065652;28;20075;-47
2022/08/14 07:13:25;;;;;;;;;;;;;;;;;;5066702;28;20029;-45
2022/08/14 07:15:53;;;;;;;4.00;1.90;;;;;;;;;;5067500;28;19916;-46
2022/08/14 07:18:27;;;;;;;3.45;1.80;;;;;;;;;;5065129;28;20025;-46
2022/08/14 07:20:54;;;;;;;1.80;1.70;;;;;;;;;;5066214;28;20047;-48
2022/08/14 07:23:24;;;;;;;2.67;1.60;;;;;;;;;;5067012;28;20039;-46
2022/08/14 07:25:53;;;;;;;5.80;1.92;;;;;;;;;;5062745;28;20025;-46
2022/08/14 07:28:30;;;;;;;4.15;1.92;;;;;;;;;;5074430;28;20024;-47
2022/08/14 07:30:57;;;;;;;7.32;1.83;;;;;;;;;;5062127;28;20094;-45
2022/08/14 07:33:25;;;;;;;3.72;1.48;;;;;;;;;;5065774;28;20036;-48
2022/08/14 07:35:52;;;;;;;2.22;1.80;;;;;;;;;;5062588;28;20496;-47
2022/08/14 07:38:19;;;;;;;4.05;1.63;;;;;;;;;;5069985;28;20126;-47
2022/08/14 07:40:47;;;;;;;2.10;1.83;;;;;;;;;;5066173;28;20062;-47
2022/08/14 07:43:13;;;;;;;2.67;1.65;;;;;;;;;;5064004;28;20028;-46
2022/08/14 07:45:40;;;;;;;4.72;1.83;;;;;;;;;;5066879;28;20126;-47
2022/08/14 07:48:06;;;;;;;2.22;2.00;;;;;;;;;;5066017;28;20035;-47
2022/08/14 07:50:32;;;;;;;1.60;1.50;;;;;;;;;;5065843;28;20028;-46
2022/08/14 07:52:59;;;;;;;2.22;1.92;;;;;;;;;;5065798;28;20170;-46
2022/08/14 07:55:25;;;;;;;2.20;1.73;;;;;;;;;;5066639;28;20100;-45
2022/08/14 07:57:51;;;;;;;4.88;1.85;;;;;;;;;;5065313;28;20037;-48
2022/08/14 08:00:21;;;;;;;3.38;1.63;;;;;;;;;;5065949;28;20033;-48
2022/08/14 08:02:48;;;;;;;5.88;2.00;;;;;;;;;;5063961;28;20031;-48
2022/08/14 08:05:15;;;;;;;2.25;2.05;;;;;;;;;;5065632;28;20553;-47
2022/08/14 08:07:43;;;;;;;2.00;1.90;;;;;;;;;;5063787;28;20412;-47
2022/08/14 08:10:30;;;;;;;5.15;1.90;;;;;;;;;;5067320;28;20024;-46
2022/08/14 08:13:01;;;;;;;2.28;1.80;;;;;;;;;;5071311;28;20036;-45
2022/08/14 08:15:32;;;;;;;5.22;1.88;;;;;;;;;;5068609;28;20466;-48
2022/08/14 08:17:59;;;;;;;;;;;;;;;;;;5069038;28;20025;-46
2022/08/14 08:20:26;;;;;;;6.05;2.10;;;;;;;;;;5070363;28;20003;-46
2022/08/14 08:22:55;;;;;;;5.63;2.50;;;;;;;;;;5068321;28;20036;-46
2022/08/14 08:25:23;;;;;;;10.05;2.63;;;;;;;;;;5065909;28;20162;-46
2022/08/14 08:28:06;;;;;;;4.75;2.67;;;;;;;;;;5070104;28;20044;-48
2022/08/14 08:30:33;;;;;;;6.78;2.65;;;;;;;;;;5066381;28;20445;-48
2022/08/14 08:33:00;;;;;;;3.28;2.40;;;;;;;;;;5071387;28;20032;-47
2022/08/14 08:35:30;;;;;;;6.38;2.42;;;;;;;;;;5068995;28;20035;-47
2022/08/14 08:38:08;;;;;;;8.63;2.20;;;;;;;;;;5069453;28;20496;-45
2022/08/14 08:40:40;;;;;;;9.93;2.30;;;;;;;;;;5067817;28;20039;-45
2022/08/14 08:43:15;;;;;;;5.60;2.30;;;;;;;;;;5069005;28;20107;-46
2022/08/14 08:45:41;;;;;;;5.60;2.58;;;;;;;;;;5071416;28;20029;-46
2022/08/14 08:48:07;;;;;;;5.97;2.30;;;;;;;;;;5065385;28;20032;-46
2022/08/14 08:50:38;;;;;;;2.92;2.08;;;;;;;;;;5069346;28;20063;-46
2022/08/14 08:53:08;;;;;;;8.30;2.45;;;;;;;;;;5067904;28;20114;-46
2022/08/14 08:55:38;;;;;;;6.88;2.55;;;;;;;;;;5066163;28;20032;-50
2022/08/14 08:58:09;;;;;;;4.95;2.42;;;;;;;;;;5068226;28;20047;-47
2022/08/14 09:00:37;;;;;;;2.53;2.30;;;;;;;;;;5068731;28;20028;-47
2022/08/14 09:03:11;;;;;;;3.28;2.78;;;;;;;;;;5070998;28;20024;-47
2022/08/14 09:05:50;;;;;;;7.80;4.15;;;;;;;;;;5065690;28;20111;-47
2022/08/14 09:08:20;;;;;;;4.85;2.72;;;;;;;;;;5066510;28;20036;-46
2022/08/14 09:10:47;;;;;;;2.95;2.20;;;;;;;;;;5071851;28;20063;-46
2022/08/14 09:13:14;;;;;;;2.83;2.60;;;;;;;;;;5068381;28;20029;-46
2022/08/14 09:15:44;;;;;;;4.18;3.03;;;;;;;;;;5073511;28;20056;-47
2022/08/14 09:18:12;;;;;;;3.95;2.53;;;;;;;;;;5070376;28;20051;-48
2022/08/14 09:20:40;;;;;;;5.40;3.45;;;;;;;;;;5067148;28;20078;-48
2022/08/14 09:23:08;;;;;;;4.78;2.70;;;;;;;;;;5068067;28;20036;-45
2022/08/14 09:25:34;;;;;;;3.63;2.28;;;;;;;;;;5072203;28;20025;-46
2022/08/14 09:28:01;;;;;;;6.28;2.92;;;;;;;;;;5068058;28;20862;-45
2022/08/14 09:30:27;;;;;;;7.57;2.72;;;;;;;;;;5070693;28;20040;-45
2022/08/14 09:33:02;;;;;;;5.05;3.13;;;;;;;;;;5070195;28;20040;-46
2022/08/14 09:36:06;;;;;;;7.70;3.10;;;;;;;;;;5065650;28;20029;-47
2022/08/14 09:39:03;;;;;;;4.20;2.88;;;;;;;;;;5064988;28;20078;-47
2022/08/14 09:41:52;;;;;;;6.15;3.25;;;;;;;;;;5067533;28;20036;-47
2022/08/14 09:44:53;;;;;;;4.78;3.10;;;;;;;;;;5068159;28;20034;-47
2022/08/14 09:47:20;;;;;;;6.10;2.60;;;;;;;;;;5068910;28;20035;-46
2022/08/14 09:49:46;;;;;;;8.30;2.85;;;;;;;;;;5066993;28;20040;-45
2022/08/14 09:52:15;;;;;;;8.02;3.30;;;;;;;;;;5064354;28;20032;-46
2022/08/14 09:54:43;;;;;;;6.18;2.53;;;;;;;;;;5066368;28;20154;-45
2022/08/14 09:57:12;;;;;;;5.20;3.10;;;;;;;;;;5064125;28;20044;-49
2022/08/14 09:59:40;;;;;;;4.63;2.85;;;;;;;;;;5069662;28;20035;-47
2022/08/14 10:02:26;;;;;;;5.53;3.30;;;;;;;;;;5065329;28;20466;-46
2022/08/14 10:05:05;;;;;;;6.47;3.65;;;;;;;;;;5064469;28;20500;-48
2022/08/14 10:07:37;;;;;;;4.03;3.17;;;;;;;;;;5069424;28;20103;-48
2022/08/14 10:10:04;;;;;;;10.48;3.17;;;;;;;;;;5065952;28;20082;-45
2022/08/14 10:12:44;;;;;;;10.48;3.65;;;;;;;;;;5068201;28;20025;-51
2022/08/14 10:15:18;;;;;;;3.42;3.13;;;;;;;;;;5062664;28;20066;-47
2022/08/14 10:17:45;;;;;;;13.80;4.28;;;;;;;;;;5070546;28;20089;-46
2022/08/14 10:20:12;;;;;;;8.43;2.92;;;;;;;;;;5067906;28;20028;-45
2022/08/14 10:22:38;;;;;;;8.27;3.22;;;;;;;;;;5065722;28;20024;-47
2022/08/14 10:25:16;;;;;;;14.00;3.53;;;;;;;;;;5066393;28;20477;-47
2022/08/14 10:27:49;;;;;;;9.98;3.42;;;;;;;;;;5065782;28;20515;-45
2022/08/14 10:30:19;;;;;;;13.10;3.38;;;;;;;;;;5065736;28;20040;-45
2022/08/14 10:32:45;;;;;;;7.80;3.22;;;;;;;;;;5069132;28;20031;-49
2022/08/14 10:35:12;;;;;;;12.02;5.05;;;;;;;;;;5065887;28;20021;-43
2022/08/14 10:37:48;;;;;;;10.90;4.20;;;;;;;;;;5064687;28;20032;-45
2022/08/14 10:40:24;;;;;;;38.70;7.10;;;;;;;;;;5068004;28;20527;-44
2022/08/14 10:42:50;;;;;;;42.38;9.00;;;;;;;;;;5067063;28;20033;-48
2022/08/14 10:45:24;;;;;;;17.63;6.28;;;;;;;;;;5067528;28;20032;-45
2022/08/14 10:47:51;;;;;;;24.77;6.75;;;;;;;;;;5063425;28;20040;-47
2022/08/14 10:50:28;;;;;;;29.55;7.30;;;;;;;;;;5067247;28;20041;-49
2022/08/14 10:53:04;;;;;;;19.95;6.53;;;;;;;;;;5061411;28;20033;-46
2022/08/14 10:55:38;;;;;;;26.15;7.93;;;;;;;;;;5067892;28;20054;-46
2022/08/14 10:58:09;;;;;;;14.38;5.28;;;;;;;;;;5067286;28;20161;-46
2022/08/14 11:00:35;;;;;;;13.63;5.20;;;;;;;;;;5069458;28;20046;-49
2022/08/14 11:03:08;;;;;;;7.85;4.63;;;;;;;;;;5066348;28;20045;-48
2022/08/14 11:05:39;;;;;;;11.63;4.50;;;;;;;;;;5065646;28;20054;-46
2022/08/14 11:08:05;;;;;;;11.13;4.93;;;;;;;;;;5068343;28;20131;-49
2022/08/14 11:10:54;;;;;;;9.68;5.22;;;;;;;;;;5065087;28;20821;-47
2022/08/14 11:13:22;;;;;;;5.88;4.20;;;;;;;;;;5063964;28;20110;-49
2022/08/14 11:15:49;;;;;;;6.28;4.47;;;;;;;;;;5064301;28;20028;-49
2022/08/14 11:18:18;;;;;;;6.07;4.63;;;;;;;;;;5062976;28;20024;-47
2022/08/14 11:20:54;;;;;;;4.13;3.70;;;;;;;;;;5062250;28;20511;-48
2022/08/14 11:23:25;;;;;;;6.93;3.10;;;;;;;;;;5061696;28;20106;-51
2022/08/14 11:25:51;;;;;;;5.28;2.20;;;;;;;;;;5064944;28;20021;-51
2022/08/14 11:28:22;;;;;;;2.83;2.05;;;;;;;;;;5065478;28;20500;-46
2022/08/14 11:30:50;;;;;;;6.07;2.57;;;;;;;;;;5064603;28;20029;-46
2022/08/14 11:33:21;;;;;;;4.95;3.20;;;;;;;;;;5064896;28;20277;-46
2022/08/14 11:35:48;;;;;;;7.97;3.92;;;;;;;;;;5067895;28;20120;-49
2022/08/14 11:38:18;;;;;;;13.43;3.53;;;;;;;;;;5063821;28;20507;-49
2022/08/14 11:40:45;;;;;;;6.80;4.18;;;;;;;;;;5063808;28;20036;-46
2022/08/14 11:43:11;;;;;;;6.43;3.80;;;;;;;;;;5065596;28;20051;-47
2022/08/14 11:45:38;;;;;;;9.70;4.28;;;;;;;;;;5068529;28;20477;-47
2022/08/14 11:48:21;;;;;;;6.15;3.08;;;;;;;;;;5073273;28;20036;-49
2022/08/14 11:50:49;;;;;;;5.20;3.00;;;;;;;;;;5068370;28;20460;-48
2022/08/14 11:53:21;;;;;;;7.60;2.60;;;;;;;;;;5069030;28;20434;-46
2022/08/14 11:56:01;;;;;;;10.50;2.80;;;;;;;;;;5067115;28;20040;-46
2022/08/14 11:58:32;;;;;;;3.60;2.97;;;;;;;;;;5070886;28;20037;-46
2022/08/14 12:01:02;;;;;;;3.97;3.15;;;;;;;;;;5068607;28;20047;-48
2022/08/14 12:03:43;;;;;;;6.78;3.03;;;;;;;;;;5066583;28;20036;-52
2022/08/14 12:06:16;;;;;;;6.47;3.05;;;;;;;;;;5066879;28;20037;-46
2022/08/14 12:08:45;;;;;;;4.38;3.15;;;;;;;;;;5066738;28;20390;-47
2022/08/14 12:11:13;;;;;;;5.85;3.20;;;;;;;;;;5064277;28;20029;-49
2022/08/14 12:13:41;;;;;;;6.93;3.65;;;;;;;;;;5064510;28;20469;-46
2022/08/14 12:16:12;;;;;;;8.45;3.88;;;;;;;;;;5070716;28;20032;-47
2022/08/14 12:18:47;;;;;;;9.90;3.80;;;;;;;;;;5069363;28;20476;-46
2022/08/14 12:21:25;;;;;;;6.32;3.90;;;;;;;;;;5065382;28;20037;-48
2022/08/14 12:24:03;;;;;;;7.20;3.45;;;;;;;;;;5067623;28;20037;-48
2022/08/14 12:26:29;;;;;;;6.30;3.60;;;;;;;;;;5070927;28;20024;-47
2022/08/14 12:29:06;;;;;;;5.63;3.85;;;;;;;;;;5071116;28;20047;-49
2022/08/14 12:31:33;;;;;;;5.78;3.50;;;;;;;;;;5069238;28;20111;-48
2022/08/14 12:34:02;;;;;;;5.55;3.42;;;;;;;;;;5067783;28;20400;-47
2022/08/14 12:36:31;;;;;;;6.50;3.70;;;;;;;;;;5072104;28;20017;-48
2022/08/14 12:38:59;;;;;;;9.85;3.67;;;;;;;;;;5069822;28;20028;-47
2022/08/14 12:41:34;;;;;;;6.13;3.55;;;;;;;;;;5064646;28;20468;-50
2022/08/14 12:44:05;;;;;;;7.30;4.43;;;;;;;;;;5067788;28;20029;-47
2022/08/14 12:46:36;;;;;;;;;;;;;;;;;;5068024;28;20020;-48
2022/08/14 12:49:12;;;;;;;6.05;3.80;;;;;;;;;;5064718;28;19916;-46
2022/08/14 12:51:39;;;;;;;4.30;3.60;;;;;;;;;;5064219;28;20516;-49
2022/08/14 12:54:30;;;;;;;6.32;3.50;;;;;;;;;;5067564;28;20625;-47
2022/08/14 12:57:17;;;;;;;6.85;3.97;;;;;;;;;;5064181;28;20047;-48
2022/08/14 12:59:44;;;;;;;8.73;4.13;;;;;;;;;;5068084;28;20045;-48
2022/08/14 13:02:23;;;;;;;8.85;4.53;;;;;;;;;;5068193;28;20047;-48
2022/08/14 13:04:49;;;;;;;6.55;4.50;;;;;;;;;;5069098;28;20040;-46
2022/08/14 13:07:15;;;;;;;4.95;4.00;;;;;;;;;;5067476;28;20036;-47
2022/08/14 13:09:41;;;;;;;9.95;4.47;;;;;;;;;;5067791;28;20032;-48
2022/08/14 13:12:07;;;;;;;6.75;4.43;;;;;;;;;;5069167;28;20021;-48
2022/08/14 13:14:34;;;;;;;8.38;4.43;;;;;;;;;;5068247;28;20028;-49
2022/08/14 13:17:03;;;;;;;7.07;3.95;;;;;;;;;;5068002;28;20481;-48
2022/08/14 13:19:29;;;;;;;5.85;4.63;;;;;;;;;;5070208;28;20024;-46
2022/08/14 13:21:55;;;;;;;7.72;4.43;;;;;;;;;;5069059;28;20047;-46
2022/08/14 13:24:22;;;;;;;5.47;4.38;;;;;;;;;;5067907;28;20028;-48
2022/08/14 13:26:50;;;;;;;8.63;4.32;;;;;;;;;;5064678;28;20044;-47
2022/08/14 13:29:22;;;;;;;13.32;4.85;;;;;;;;;;5068785;28;20113;-48
2022/08/14 13:31:52;;;;;;;8.40;4.80;;;;;;;;;;5070687;28;20072;-46
2022/08/14 13:34:23;;;;;;;7.93;5.03;;;;;;;;;;5068871;28;20115;-46
2022/08/14 13:36:51;;;;;;;9.70;4.57;;;;;;;;;;5067714;28;20025;-45
2022/08/14 13:39:18;;;;;;;13.00;4.32;;;;;;;;;;5069668;28;20159;-45
2022/08/14 13:41:46;;;;;;;13.18;4.85;;;;;;;;;;5064544;28;20024;-46
2022/08/14 13:44:14;;;;;;;8.13;4.53;;;;;;;;;;5068899;28;20482;-51
2022/08/14 13:46:42;;;;;;;13.77;4.55;;;;;;;;;;5069542;28;20446;-47
2022/08/14 13:49:10;;;;;;;7.30;4.25;;;;;;;;;;5070001;28;20028;-46
2022/08/14 13:51:42;;;;;;;10.68;4.72;;;;;;;;;;5067634;28;20036;-48
2022/08/14 13:54:08;;;;;;;7.05;4.13;;;;;;;;;;5068784;28;20024;-46
2022/08/14 13:56:38;;;;;;;11.82;4.95;;;;;;;;;;5067021;28;20070;-49
2022/08/14 13:59:05;;;;;;;11.98;4.47;;;;;;;;;;5069373;28;20126;-46
2022/08/14 14:01:33;;;;;;;13.25;4.68;;;;;;;;;;5066438;28;20044;-50
2022/08/14 14:04:01;;;;;;;6.28;4.28;;;;;;;;;;5066618;28;20025;-46
2022/08/14 14:06:29;;;;;;;6.93;4.28;;;;;;;;;;5067033;28;20028;-47
2022/08/14 14:08:56;;;;;;;7.68;4.30;;;;;;;;;;5067001;28;20524;-48
2022/08/14 14:11:23;;;;;;;11.63;4.30;;;;;;;;;;5065725;28;20051;-47
2022/08/14 14:13:51;;;;;;;10.45;4.40;;;;;;;;;;5068601;28;20093;-48
2022/08/14 14:16:19;;;;;;;8.65;5.22;;;;;;;;;;5066402;28;20489;-47
2022/08/14 14:18:54;;;;;;;10.18;4.63;;;;;;;;;;5064784;28;20056;-47
2022/08/14 14:21:25;;;;;;;13.98;5.35;;;;;;;;;;5061602;28;20034;-47
2022/08/14 14:23:51;;;;;;;9.82;4.35;;;;;;;;;;5066877;28;20032;-47
2022/08/14 14:26:19;;;;;;;8.65;4.40;;;;;;;;;;5066244;28;20385;-46
2022/08/14 14:28:51;;;;;;;7.72;4.30;;;;;;;;;;5063960;28;20025;-49
2022/08/14 14:31:23;;;;;;;9.85;4.50;;;;;;;;;;5066395;28;20028;-47
2022/08/14 14:33:56;;;;;;;9.45;4.40;;;;;;;;;;5066020;28;20120;-46
2022/08/14 14:36:29;;;;;;;9.38;4.75;;;;;;;;;;5062643;28;20031;-46
2022/08/14 14:39:00;;;;;;;14.00;4.35;;;;;;;;;;5064070;28;20162;-47
2022/08/14 14:41:30;;;;;;;12.10;4.10;;;;;;;;;;5065478;28;20043;-48
2022/08/14 14:43:57;;;;;;;7.65;4.40;;;;;;;;;;5065016;28;20787;-47
2022/08/14 14:46:25;;;;;;;12.75;4.55;;;;;;;;;;5068991;28;20028;-49
2022/08/14 14:48:51;;;;;;;7.10;3.85;;;;;;;;;;5066250;28;20036;-47
2022/08/14 14:51:18;;;;;;;10.20;4.20;;;;;;;;;;5064687;28;20084;-48
2022/08/14 14:53:45;;;;;;;10.15;4.20;;;;;;;;;;5067385;28;20031;-46
2022/08/14 14:56:12;;;;;;;6.78;4.00;;;;;;;;;;5065881;28;20047;-48
2022/08/14 14:58:40;;;;;;;9.20;3.70;;;;;;;;;;5068954;28;20124;-46
2022/08/14 15:01:08;;;;;;;9.02;4.22;;;;;;;;;;5066062;28;20097;-47
2022/08/14 15:03:37;;;;;;;13.68;4.00;;;;;;;;;;5066412;28;20028;-46
2022/08/14 15:06:04;;;;;;;9.73;3.90;;;;;;;;;;5068616;28;20025;-47
2022/08/14 15:08:31;;;;;;;11.02;4.43;;;;;;;;;;5064082;28;20075;-46
2022/08/14 15:10:58;;;;;;;12.25;4.43;;;;;;;;;;5081308;28;20500;-46
2022/08/14 15:13:25;;;;;;;5.90;3.88;;;;;;;;;;5066804;28;20036;-46